sensor_id;sensor_type;location;lat;lon;timestamp;P1;durP1;ratioP1;P2;durP2;ratioP2
50519;SDS011;36468;44.098;3.078;2022-09-01T00:01:22;7.43;;;3.30;;
50519;SDS011;36468;44.098;3.078;2022-09-01T00:03:51;6.35;;;3.42;;
50519;SDS011;36468;44.098;3.078;2022-09-01T00:06:22;5.90;;;3.38;;
50519;SDS011;36468;44.098;3.078;2022-09-01T00:08:49;10.35;;;3.60;;
50519;SDS011;36468;44.098;3.078;2022-09-01T00:11:15;9.55;;;3.45;;
50519;SDS011;36468;44.098;3.078;2022-09-01T00:13:41;8.48;;;3.50;;
50519;SDS011;36468;44.098;3.078;2022-09-01T00:16:08;6.50;;;3.58;;
50519;SDS011;36468;44.098;3.078;2022-09-01T00:18:38;7.55;;;3.63;;
50519;SDS011;36468;44.098;3.078;2022-09-01T00:21:06;7.82;;;3.67;;
50519;SDS011;36468;44.098;3.078;2022-09-01T00:23:32;6.25;;;3.70;;
50519;SDS011;36468;44.098;3.078;2022-09-01T00:25:58;6.55;;;3.95;;
50519;SDS011;36468;44.098;3.078;2022-09-01T00:28:24;5.50;;;3.67;;
50519;SDS011;36468;44.098;3.078;2022-09-01T00:30:51;5.00;;;3.45;;
50519;SDS011;36468;44.098;3.078;2022-09-01T00:33:17;5.85;;;3.50;;
50519;SDS011;36468;44.098;3.078;2022-09-01T00:35:43;4.65;;;3.03;;
50519;SDS011;36468;44.098;3.078;2022-09-01T00:38:10;9.38;;;3.60;;
50519;SDS011;36468;44.098;3.078;2022-09-01T00:40:36;5.43;;;3.53;;
50519;SDS011;36468;44.098;3.078;2022-09-01T00:45:47;5.80;;;3.60;;
50519;SDS011;36468;44.098;3.078;2022-09-01T00:48:16;5.97;;;3.60;;
50519;SDS011;36468;44.098;3.078;2022-09-01T00:50:44;5.25;;;3.80;;
50519;SDS011;36468;44.098;3.078;2022-09-01T00:53:10;5.00;;;3.30;;
50519;SDS011;36468;44.098;3.078;2022-09-01T00:55:36;7.57;;;3.80;;
50519;SDS011;36468;44.098;3.078;2022-09-01T00:58:03;5.53;;;3.60;;
50519;SDS011;36468;44.098;3.078;2022-09-01T01:00:30;6.03;;;3.50;;
50519;SDS011;36468;44.098;3.078;2022-09-01T01:02:56;6.25;;;3.70;;
50519;SDS011;36468;44.098;3.078;2022-09-01T01:05:24;5.22;;;3.50;;
50519;SDS011;36468;44.098;3.078;2022-09-01T01:07:52;6.55;;;3.33;;
50519;SDS011;36468;44.098;3.078;2022-09-01T01:10:18;6.53;;;3.40;;
50519;SDS011;36468;44.098;3.078;2022-09-01T01:12:46;5.50;;;3.40;;
50519;SDS011;36468;44.098;3.078;2022-09-01T01:15:15;8.57;;;3.78;;
50519;SDS011;36468;44.098;3.078;2022-09-01T01:17:42;6.47;;;3.85;;
50519;SDS011;36468;44.098;3.078;2022-09-01T01:20:08;7.03;;;3.50;;
50519;SDS011;36468;44.098;3.078;2022-09-01T01:28:06;5.30;;;3.53;;
50519;SDS011;36468;44.098;3.078;2022-09-01T01:30:33;7.68;;;3.20;;
50519;SDS011;36468;44.098;3.078;2022-09-01T01:32:59;6.10;;;3.58;;
50519;SDS011;36468;44.098;3.078;2022-09-01T01:35:26;5.85;;;3.70;;
50519;SDS011;36468;44.098;3.078;2022-09-01T01:37:52;7.25;;;3.83;;
50519;SDS011;36468;44.098;3.078;2022-09-01T01:40:18;7.65;;;4.00;;
50519;SDS011;36468;44.098;3.078;2022-09-01T01:42:47;5.93;;;3.88;;
50519;SDS011;36468;44.098;3.078;2022-09-01T01:45:14;6.47;;;4.10;;
50519;SDS011;36468;44.098;3.078;2022-09-01T01:47:44;8.05;;;3.33;;
50519;SDS011;36468;44.098;3.078;2022-09-01T01:50:24;5.90;;;3.92;;
50519;SDS011;36468;44.098;3.078;2022-09-01T01:52:50;8.35;;;3.60;;
50519;SDS011;36468;44.098;3.078;2022-09-01T01:55:16;5.43;;;3.50;;
50519;SDS011;36468;44.098;3.078;2022-09-01T01:57:44;7.03;;;3.67;;
50519;SDS011;36468;44.098;3.078;2022-09-01T02:00:14;5.18;;;3.42;;
50519;SDS011;36468;44.098;3.078;2022-09-01T02:02:44;5.70;;;3.50;;
50519;SDS011;36468;44.098;3.078;2022-09-01T02:05:37;9.60;;;3.60;;
50519;SDS011;36468;44.098;3.078;2022-09-01T02:08:04;5.68;;;3.55;;
50519;SDS011;36468;44.098;3.078;2022-09-01T02:10:32;6.63;;;3.72;;
50519;SDS011;36468;44.098;3.078;2022-09-01T02:12:59;4.75;;;3.55;;
50519;SDS011;36468;44.098;3.078;2022-09-01T02:15:32;7.85;;;3.95;;
50519;SDS011;36468;44.098;3.078;2022-09-01T02:18:09;4.40;;;3.50;;
50519;SDS011;36468;44.098;3.078;2022-09-01T02:20:37;5.47;;;4.10;;
50519;SDS011;36468;44.098;3.078;2022-09-01T02:23:05;7.93;;;4.13;;
50519;SDS011;36468;44.098;3.078;2022-09-01T02:25:40;4.90;;;3.28;;
50519;SDS011;36468;44.098;3.078;2022-09-01T02:28:08;7.85;;;3.53;;
50519;SDS011;36468;44.098;3.078;2022-09-01T02:30:40;5.75;;;3.78;;
50519;SDS011;36468;44.098;3.078;2022-09-01T02:33:06;5.93;;;4.25;;
50519;SDS011;36468;44.098;3.078;2022-09-01T02:35:33;6.45;;;4.18;;
50519;SDS011;36468;44.098;3.078;2022-09-01T02:38:02;6.43;;;3.95;;
50519;SDS011;36468;44.098;3.078;2022-09-01T02:40:29;7.00;;;4.13;;
50519;SDS011;36468;44.098;3.078;2022-09-01T02:42:58;9.95;;;3.88;;
50519;SDS011;36468;44.098;3.078;2022-09-01T02:45:26;4.45;;;3.85;;
50519;SDS011;36468;44.098;3.078;2022-09-01T02:47:53;5.90;;;4.20;;
50519;SDS011;36468;44.098;3.078;2022-09-01T02:50:21;6.60;;;4.05;;
50519;SDS011;36468;44.098;3.078;2022-09-01T02:52:49;9.48;;;4.10;;
50519;SDS011;36468;44.098;3.078;2022-09-01T02:55:18;5.85;;;3.50;;
50519;SDS011;36468;44.098;3.078;2022-09-01T02:57:49;4.95;;;3.80;;
50519;SDS011;36468;44.098;3.078;2022-09-01T03:00:21;5.50;;;4.07;;
50519;SDS011;36468;44.098;3.078;2022-09-01T03:02:56;6.07;;;3.88;;
50519;SDS011;36468;44.098;3.078;2022-09-01T03:05:23;6.65;;;3.58;;
50519;SDS011;36468;44.098;3.078;2022-09-01T03:08:01;8.30;;;4.40;;
50519;SDS011;36468;44.098;3.078;2022-09-01T03:10:29;4.72;;;3.80;;
50519;SDS011;36468;44.098;3.078;2022-09-01T03:13:00;6.00;;;3.83;;
50519;SDS011;36468;44.098;3.078;2022-09-01T03:15:27;6.68;;;3.90;;
50519;SDS011;36468;44.098;3.078;2022-09-01T03:17:53;5.47;;;3.85;;
50519;SDS011;36468;44.098;3.078;2022-09-01T03:20:19;5.55;;;4.30;;
50519;SDS011;36468;44.098;3.078;2022-09-01T03:22:46;8.98;;;4.22;;
50519;SDS011;36468;44.098;3.078;2022-09-01T03:25:13;6.43;;;4.13;;
50519;SDS011;36468;44.098;3.078;2022-09-01T03:27:39;5.47;;;3.97;;
50519;SDS011;36468;44.098;3.078;2022-09-01T03:30:05;8.95;;;4.15;;
50519;SDS011;36468;44.098;3.078;2022-09-01T03:32:32;8.27;;;4.45;;
50519;SDS011;36468;44.098;3.078;2022-09-01T03:34:58;9.15;;;4.50;;
50519;SDS011;36468;44.098;3.078;2022-09-01T03:37:24;8.05;;;4.40;;
50519;SDS011;36468;44.098;3.078;2022-09-01T03:39:51;5.32;;;3.90;;
50519;SDS011;36468;44.098;3.078;2022-09-01T03:42:17;11.60;;;4.10;;
50519;SDS011;36468;44.098;3.078;2022-09-01T03:44:44;6.53;;;4.20;;
50519;SDS011;36468;44.098;3.078;2022-09-01T03:47:10;5.22;;;4.28;;
50519;SDS011;36468;44.098;3.078;2022-09-01T03:49:39;7.10;;;4.20;;
50519;SDS011;36468;44.098;3.078;2022-09-01T03:52:08;8.65;;;4.30;;
50519;SDS011;36468;44.098;3.078;2022-09-01T03:54:34;8.05;;;3.95;;
50519;SDS011;36468;44.098;3.078;2022-09-01T03:57:00;9.85;;;4.00;;
50519;SDS011;36468;44.098;3.078;2022-09-01T03:59:30;10.05;;;4.20;;
50519;SDS011;36468;44.098;3.078;2022-09-01T04:01:57;7.43;;;4.25;;
50519;SDS011;36468;44.098;3.078;2022-09-01T04:04:24;5.63;;;4.18;;
50519;SDS011;36468;44.098;3.078;2022-09-01T04:06:50;6.47;;;3.90;;
50519;SDS011;36468;44.098;3.078;2022-09-01T04:09:16;8.85;;;4.15;;
50519;SDS011;36468;44.098;3.078;2022-09-01T04:11:43;9.43;;;4.05;;
50519;SDS011;36468;44.098;3.078;2022-09-01T04:14:10;8.13;;;3.63;;
50519;SDS011;36468;44.098;3.078;2022-09-01T04:16:37;6.20;;;4.22;;
50519;SDS011;36468;44.098;3.078;2022-09-01T04:19:23;10.13;;;4.15;;
50519;SDS011;36468;44.098;3.078;2022-09-01T04:21:54;8.10;;;4.07;;
50519;SDS011;36468;44.098;3.078;2022-09-01T04:24:22;7.47;;;4.03;;
50519;SDS011;36468;44.098;3.078;2022-09-01T04:26:48;8.02;;;4.57;;
50519;SDS011;36468;44.098;3.078;2022-09-01T04:29:18;8.57;;;3.97;;
50519;SDS011;36468;44.098;3.078;2022-09-01T04:31:48;5.13;;;3.95;;
50519;SDS011;36468;44.098;3.078;2022-09-01T04:34:16;6.28;;;4.05;;
50519;SDS011;36468;44.098;3.078;2022-09-01T04:36:43;6.30;;;3.70;;
50519;SDS011;36468;44.098;3.078;2022-09-01T04:39:09;6.05;;;3.97;;
50519;SDS011;36468;44.098;3.078;2022-09-01T04:41:38;5.72;;;4.30;;
50519;SDS011;36468;44.098;3.078;2022-09-01T04:44:05;7.50;;;4.50;;
50519;SDS011;36468;44.098;3.078;2022-09-01T04:46:34;6.28;;;4.18;;
50519;SDS011;36468;44.098;3.078;2022-09-01T04:49:01;5.55;;;4.10;;
50519;SDS011;36468;44.098;3.078;2022-09-01T04:51:32;7.45;;;4.07;;
50519;SDS011;36468;44.098;3.078;2022-09-01T04:54:00;8.98;;;4.03;;
50519;SDS011;36468;44.098;3.078;2022-09-01T04:56:26;6.63;;;4.30;;
50519;SDS011;36468;44.098;3.078;2022-09-01T04:58:54;7.18;;;4.60;;
50519;SDS011;36468;44.098;3.078;2022-09-01T05:01:21;6.90;;;4.45;;
50519;SDS011;36468;44.098;3.078;2022-09-01T05:03:48;9.68;;;4.50;;
50519;SDS011;36468;44.098;3.078;2022-09-01T05:06:20;5.45;;;4.22;;
50519;SDS011;36468;44.098;3.078;2022-09-01T05:08:47;5.57;;;4.25;;
50519;SDS011;36468;44.098;3.078;2022-09-01T05:11:14;6.60;;;4.13;;
50519;SDS011;36468;44.098;3.078;2022-09-01T05:13:44;8.52;;;4.07;;
50519;SDS011;36468;44.098;3.078;2022-09-01T05:16:13;6.63;;;4.38;;
50519;SDS011;36468;44.098;3.078;2022-09-01T05:18:40;8.65;;;4.20;;
50519;SDS011;36468;44.098;3.078;2022-09-01T05:21:10;7.88;;;4.47;;
50519;SDS011;36468;44.098;3.078;2022-09-01T05:23:38;11.02;;;3.97;;
50519;SDS011;36468;44.098;3.078;2022-09-01T05:26:05;6.65;;;4.32;;
50519;SDS011;36468;44.098;3.078;2022-09-01T05:28:39;9.95;;;4.60;;
50519;SDS011;36468;44.098;3.078;2022-09-01T05:31:05;7.50;;;4.55;;
50519;SDS011;36468;44.098;3.078;2022-09-01T05:33:31;11.90;;;4.60;;
50519;SDS011;36468;44.098;3.078;2022-09-01T05:35:59;13.27;;;4.53;;
50519;SDS011;36468;44.098;3.078;2022-09-01T05:38:25;7.97;;;4.63;;
50519;SDS011;36468;44.098;3.078;2022-09-01T05:40:55;9.82;;;4.40;;
50519;SDS011;36468;44.098;3.078;2022-09-01T05:43:22;7.20;;;4.55;;
50519;SDS011;36468;44.098;3.078;2022-09-01T05:45:49;11.45;;;4.13;;
50519;SDS011;36468;44.098;3.078;2022-09-01T05:48:15;7.05;;;4.10;;
50519;SDS011;36468;44.098;3.078;2022-09-01T05:50:41;9.98;;;4.40;;
50519;SDS011;36468;44.098;3.078;2022-09-01T05:53:08;7.00;;;4.40;;
50519;SDS011;36468;44.098;3.078;2022-09-01T05:55:40;10.07;;;4.20;;
50519;SDS011;36468;44.098;3.078;2022-09-01T05:58:08;10.88;;;4.43;;
50519;SDS011;36468;44.098;3.078;2022-09-01T06:00:37;7.70;;;4.40;;
50519;SDS011;36468;44.098;3.078;2022-09-01T06:03:04;10.35;;;4.70;;
50519;SDS011;36468;44.098;3.078;2022-09-01T06:05:33;7.07;;;4.75;;
50519;SDS011;36468;44.098;3.078;2022-09-01T06:08:00;14.68;;;4.68;;
50519;SDS011;36468;44.098;3.078;2022-09-01T06:10:26;6.90;;;4.15;;
50519;SDS011;36468;44.098;3.078;2022-09-01T06:12:54;9.38;;;4.13;;
50519;SDS011;36468;44.098;3.078;2022-09-01T06:15:20;9.15;;;4.60;;
50519;SDS011;36468;44.098;3.078;2022-09-01T06:17:47;12.88;;;4.80;;
50519;SDS011;36468;44.098;3.078;2022-09-01T06:20:13;13.18;;;4.70;;
50519;SDS011;36468;44.098;3.078;2022-09-01T06:22:42;12.38;;;4.72;;
50519;SDS011;36468;44.098;3.078;2022-09-01T06:25:09;8.93;;;4.97;;
50519;SDS011;36468;44.098;3.078;2022-09-01T06:27:35;9.93;;;4.75;;
50519;SDS011;36468;44.098;3.078;2022-09-01T06:30:08;7.32;;;4.65;;
50519;SDS011;36468;44.098;3.078;2022-09-01T06:32:43;11.20;;;4.95;;
50519;SDS011;36468;44.098;3.078;2022-09-01T06:35:12;13.88;;;4.75;;
50519;SDS011;36468;44.098;3.078;2022-09-01T06:37:42;12.40;;;5.27;;
50519;SDS011;36468;44.098;3.078;2022-09-01T06:40:09;15.43;;;5.00;;
50519;SDS011;36468;44.098;3.078;2022-09-01T06:42:45;16.03;;;4.90;;
50519;SDS011;36468;44.098;3.078;2022-09-01T06:45:15;9.50;;;3.90;;
50519;SDS011;36468;44.098;3.078;2022-09-01T06:47:42;10.75;;;4.82;;
50519;SDS011;36468;44.098;3.078;2022-09-01T06:50:09;10.68;;;4.63;;
50519;SDS011;36468;44.098;3.078;2022-09-01T06:52:36;10.82;;;4.40;;
50519;SDS011;36468;44.098;3.078;2022-09-01T06:55:04;8.30;;;3.85;;
50519;SDS011;36468;44.098;3.078;2022-09-01T06:57:30;10.50;;;4.55;;
50519;SDS011;36468;44.098;3.078;2022-09-01T06:59:56;12.95;;;4.05;;
50519;SDS011;36468;44.098;3.078;2022-09-01T07:02:23;9.02;;;3.50;;
50519;SDS011;36468;44.098;3.078;2022-09-01T07:04:49;9.05;;;3.38;;
50519;SDS011;36468;44.098;3.078;2022-09-01T07:07:15;9.25;;;3.70;;
50519;SDS011;36468;44.098;3.078;2022-09-01T07:09:41;6.45;;;3.70;;
50519;SDS011;36468;44.098;3.078;2022-09-01T07:12:08;9.75;;;3.83;;
50519;SDS011;36468;44.098;3.078;2022-09-01T07:14:34;9.38;;;3.63;;
50519;SDS011;36468;44.098;3.078;2022-09-01T07:17:00;13.10;;;4.10;;
50519;SDS011;36468;44.098;3.078;2022-09-01T07:19:26;5.65;;;3.25;;
50519;SDS011;36468;44.098;3.078;2022-09-01T07:21:52;6.97;;;3.60;;
50519;SDS011;36468;44.098;3.078;2022-09-01T07:24:19;6.60;;;3.13;;
50519;SDS011;36468;44.098;3.078;2022-09-01T07:26:46;18.17;;;4.13;;
50519;SDS011;36468;44.098;3.078;2022-09-01T07:29:14;16.48;;;3.88;;
50519;SDS011;36468;44.098;3.078;2022-09-01T07:31:42;11.60;;;3.58;;
50519;SDS011;36468;44.098;3.078;2022-09-01T07:34:09;8.75;;;3.35;;
50519;SDS011;36468;44.098;3.078;2022-09-01T07:36:37;7.65;;;3.20;;
50519;SDS011;36468;44.098;3.078;2022-09-01T07:39:03;8.60;;;3.10;;
50519;SDS011;36468;44.098;3.078;2022-09-01T07:41:30;8.23;;;3.47;;
50519;SDS011;36468;44.098;3.078;2022-09-01T07:43:59;7.10;;;3.20;;
50519;SDS011;36468;44.098;3.078;2022-09-01T07:46:27;6.13;;;2.75;;
50519;SDS011;36468;44.098;3.078;2022-09-01T07:48:55;10.27;;;3.70;;
50519;SDS011;36468;44.098;3.078;2022-09-01T07:51:22;10.25;;;3.08;;
50519;SDS011;36468;44.098;3.078;2022-09-01T07:53:49;9.55;;;3.20;;
50519;SDS011;36468;44.098;3.078;2022-09-01T07:56:15;8.30;;;2.80;;
50519;SDS011;36468;44.098;3.078;2022-09-01T07:58:44;9.52;;;3.03;;
50519;SDS011;36468;44.098;3.078;2022-09-01T08:01:11;7.28;;;3.10;;
50519;SDS011;36468;44.098;3.078;2022-09-01T08:03:37;5.53;;;2.83;;
50519;SDS011;36468;44.098;3.078;2022-09-01T08:06:05;8.73;;;2.92;;
50519;SDS011;36468;44.098;3.078;2022-09-01T08:08:32;6.97;;;3.03;;
50519;SDS011;36468;44.098;3.078;2022-09-01T08:10:58;8.00;;;3.17;;
50519;SDS011;36468;44.098;3.078;2022-09-01T08:13:24;8.00;;;3.08;;
50519;SDS011;36468;44.098;3.078;2022-09-01T08:15:50;5.40;;;3.15;;
50519;SDS011;36468;44.098;3.078;2022-09-01T08:18:16;9.27;;;3.40;;
50519;SDS011;36468;44.098;3.078;2022-09-01T08:20:43;6.47;;;3.08;;
50519;SDS011;36468;44.098;3.078;2022-09-01T08:23:12;6.28;;;3.10;;
50519;SDS011;36468;44.098;3.078;2022-09-01T08:25:40;5.25;;;2.97;;
50519;SDS011;36468;44.098;3.078;2022-09-01T08:28:08;6.82;;;3.10;;
50519;SDS011;36468;44.098;3.078;2022-09-01T08:30:34;5.47;;;3.08;;
50519;SDS011;36468;44.098;3.078;2022-09-01T08:33:02;7.15;;;3.00;;
50519;SDS011;36468;44.098;3.078;2022-09-01T08:35:28;6.65;;;3.00;;
50519;SDS011;36468;44.098;3.078;2022-09-01T08:37:55;8.18;;;2.85;;
50519;SDS011;36468;44.098;3.078;2022-09-01T08:40:21;7.15;;;3.10;;
50519;SDS011;36468;44.098;3.078;2022-09-01T08:45:26;7.13;;;2.63;;
50519;SDS011;36468;44.098;3.078;2022-09-01T08:47:53;6.57;;;3.00;;
50519;SDS011;36468;44.098;3.078;2022-09-01T08:50:20;7.22;;;2.38;;
50519;SDS011;36468;44.098;3.078;2022-09-01T08:52:59;6.65;;;2.40;;
50519;SDS011;36468;44.098;3.078;2022-09-01T08:55:29;7.85;;;2.78;;
50519;SDS011;36468;44.098;3.078;2022-09-01T08:57:56;7.25;;;2.70;;
50519;SDS011;36468;44.098;3.078;2022-09-01T09:00:28;5.78;;;2.50;;
50519;SDS011;36468;44.098;3.078;2022-09-01T09:13:17;6.95;;;2.53;;
50519;SDS011;36468;44.098;3.078;2022-09-01T09:15:48;8.35;;;2.33;;
50519;SDS011;36468;44.098;3.078;2022-09-01T09:18:18;10.63;;;2.10;;
50519;SDS011;36468;44.098;3.078;2022-09-01T09:20:45;5.65;;;2.40;;
50519;SDS011;36468;44.098;3.078;2022-09-01T09:23:23;7.07;;;2.08;;
50519;SDS011;36468;44.098;3.078;2022-09-01T09:25:50;5.63;;;2.00;;
50519;SDS011;36468;44.098;3.078;2022-09-01T09:28:16;6.75;;;2.00;;
50519;SDS011;36468;44.098;3.078;2022-09-01T09:30:42;5.13;;;2.08;;
50519;SDS011;36468;44.098;3.078;2022-09-01T09:33:08;5.38;;;2.15;;
50519;SDS011;36468;44.098;3.078;2022-09-01T09:35:40;6.70;;;2.03;;
50519;SDS011;36468;44.098;3.078;2022-09-01T09:41:14;6.82;;;2.00;;
50519;SDS011;36468;44.098;3.078;2022-09-01T09:43:47;6.20;;;1.90;;
50519;SDS011;36468;44.098;3.078;2022-09-01T09:46:24;6.40;;;2.22;;
50519;SDS011;36468;44.098;3.078;2022-09-01T09:51:32;7.55;;;2.00;;
50519;SDS011;36468;44.098;3.078;2022-09-01T09:59:18;5.85;;;1.77;;
50519;SDS011;36468;44.098;3.078;2022-09-01T10:01:46;5.32;;;1.65;;
50519;SDS011;36468;44.098;3.078;2022-09-01T10:04:30;3.55;;;1.88;;
50519;SDS011;36468;44.098;3.078;2022-09-01T10:06:57;6.05;;;2.17;;
50519;SDS011;36468;44.098;3.078;2022-09-01T10:11:56;4.60;;;1.85;;
50519;SDS011;36468;44.098;3.078;2022-09-01T10:16:51;6.40;;;2.08;;
50519;SDS011;36468;44.098;3.078;2022-09-01T10:19:18;5.40;;;1.70;;
50519;SDS011;36468;44.098;3.078;2022-09-01T10:21:45;3.67;;;1.55;;
50519;SDS011;36468;44.098;3.078;2022-09-01T10:24:18;5.00;;;1.88;;
50519;SDS011;36468;44.098;3.078;2022-09-01T10:26:49;5.03;;;1.80;;
50519;SDS011;36468;44.098;3.078;2022-09-01T10:29:19;5.47;;;1.40;;
50519;SDS011;36468;44.098;3.078;2022-09-01T10:31:46;5.43;;;1.73;;
50519;SDS011;36468;44.098;3.078;2022-09-01T10:34:14;4.35;;;1.80;;
50519;SDS011;36468;44.098;3.078;2022-09-01T10:36:42;7.57;;;1.60;;
50519;SDS011;36468;44.098;3.078;2022-09-01T10:39:09;6.88;;;1.73;;
50519;SDS011;36468;44.098;3.078;2022-09-01T10:41:43;3.88;;;1.60;;
50519;SDS011;36468;44.098;3.078;2022-09-01T10:44:22;4.18;;;1.45;;
50519;SDS011;36468;44.098;3.078;2022-09-01T10:46:50;4.18;;;1.70;;
50519;SDS011;36468;44.098;3.078;2022-09-01T10:49:18;5.68;;;1.70;;
50519;SDS011;36468;44.098;3.078;2022-09-01T10:51:45;4.60;;;1.55;;
50519;SDS011;36468;44.098;3.078;2022-09-01T10:56:56;7.65;;;1.75;;
50519;SDS011;36468;44.098;3.078;2022-09-01T10:59:25;3.67;;;1.40;;
50519;SDS011;36468;44.098;3.078;2022-09-01T11:04:20;8.02;;;1.70;;
50519;SDS011;36468;44.098;3.078;2022-09-01T11:09:25;3.50;;;1.50;;
50519;SDS011;36468;44.098;3.078;2022-09-01T11:14:30;5.05;;;2.00;;
50519;SDS011;36468;44.098;3.078;2022-09-01T11:22:53;4.10;;;1.50;;
50519;SDS011;36468;44.098;3.078;2022-09-01T11:30:19;3.70;;;1.60;;
50519;SDS011;36468;44.098;3.078;2022-09-01T11:32:47;3.85;;;1.40;;
50519;SDS011;36468;44.098;3.078;2022-09-01T11:35:16;4.90;;;1.30;;
50519;SDS011;36468;44.098;3.078;2022-09-01T11:37:46;5.13;;;1.38;;
50519;SDS011;36468;44.098;3.078;2022-09-01T11:40:12;9.55;;;1.50;;
50519;SDS011;36468;44.098;3.078;2022-09-01T11:42:45;1.75;;;1.30;;
50519;SDS011;36468;44.098;3.078;2022-09-01T11:45:14;2.55;;;1.50;;
50519;SDS011;36468;44.098;3.078;2022-09-01T11:47:41;4.20;;;1.38;;
50519;SDS011;36468;44.098;3.078;2022-09-01T11:52:41;7.05;;;1.50;;
50519;SDS011;36468;44.098;3.078;2022-09-01T11:55:07;6.93;;;1.30;;
50519;SDS011;36468;44.098;3.078;2022-09-01T11:57:39;6.13;;;1.40;;
50519;SDS011;36468;44.098;3.078;2022-09-01T12:00:08;3.85;;;1.40;;
50519;SDS011;36468;44.098;3.078;2022-09-01T12:02:35;4.70;;;1.40;;
50519;SDS011;36468;44.098;3.078;2022-09-01T12:05:02;4.70;;;1.52;;
50519;SDS011;36468;44.098;3.078;2022-09-01T12:07:40;4.30;;;1.70;;
50519;SDS011;36468;44.098;3.078;2022-09-01T12:10:17;7.03;;;1.60;;
50519;SDS011;36468;44.098;3.078;2022-09-01T12:12:44;3.85;;;1.50;;
50519;SDS011;36468;44.098;3.078;2022-09-01T12:15:21;5.60;;;1.60;;
50519;SDS011;36468;44.098;3.078;2022-09-01T12:17:47;7.05;;;1.70;;
50519;SDS011;36468;44.098;3.078;2022-09-01T12:20:24;5.32;;;1.98;;
50519;SDS011;36468;44.098;3.078;2022-09-01T12:22:51;5.15;;;1.80;;
50519;SDS011;36468;44.098;3.078;2022-09-01T12:25:21;5.95;;;2.00;;
50519;SDS011;36468;44.098;3.078;2022-09-01T12:27:48;5.13;;;2.15;;
50519;SDS011;36468;44.098;3.078;2022-09-01T12:30:14;5.85;;;1.92;;
50519;SDS011;36468;44.098;3.078;2022-09-01T12:32:40;6.13;;;2.30;;
50519;SDS011;36468;44.098;3.078;2022-09-01T12:35:18;3.78;;;2.20;;
50519;SDS011;36468;44.098;3.078;2022-09-01T12:37:46;3.25;;;2.08;;
50519;SDS011;36468;44.098;3.078;2022-09-01T12:40:23;5.72;;;2.35;;
50519;SDS011;36468;44.098;3.078;2022-09-01T12:42:50;6.38;;;2.45;;
50519;SDS011;36468;44.098;3.078;2022-09-01T12:45:34;12.85;;;2.50;;
50519;SDS011;36468;44.098;3.078;2022-09-01T12:48:01;4.38;;;2.25;;
50519;SDS011;36468;44.098;3.078;2022-09-01T12:55:21;6.97;;;2.22;;
50519;SDS011;36468;44.098;3.078;2022-09-01T12:57:48;7.38;;;2.35;;
50519;SDS011;36468;44.098;3.078;2022-09-01T13:00:22;7.95;;;2.55;;
50519;SDS011;36468;44.098;3.078;2022-09-01T13:02:49;4.78;;;2.38;;
50519;SDS011;36468;44.098;3.078;2022-09-01T13:07:46;8.38;;;2.45;;
50519;SDS011;36468;44.098;3.078;2022-09-01T13:10:12;6.10;;;2.33;;
50519;SDS011;36468;44.098;3.078;2022-09-01T13:12:42;5.28;;;2.40;;
50519;SDS011;36468;44.098;3.078;2022-09-01T13:15:08;5.55;;;2.30;;
50519;SDS011;36468;44.098;3.078;2022-09-01T13:17:35;4.10;;;2.30;;
50519;SDS011;36468;44.098;3.078;2022-09-01T13:20:02;8.45;;;2.47;;
50519;SDS011;36468;44.098;3.078;2022-09-01T13:22:29;6.47;;;2.25;;
50519;SDS011;36468;44.098;3.078;2022-09-01T13:24:55;9.00;;;2.17;;
50519;SDS011;36468;44.098;3.078;2022-09-01T13:27:21;5.20;;;2.40;;
50519;SDS011;36468;44.098;3.078;2022-09-01T13:29:47;7.97;;;2.20;;
50519;SDS011;36468;44.098;3.078;2022-09-01T13:32:14;4.88;;;2.40;;
50519;SDS011;36468;44.098;3.078;2022-09-01T13:34:41;6.70;;;2.15;;
50519;SDS011;36468;44.098;3.078;2022-09-01T13:37:07;9.75;;;2.38;;
50519;SDS011;36468;44.098;3.078;2022-09-01T13:39:33;6.95;;;2.35;;
50519;SDS011;36468;44.098;3.078;2022-09-01T13:41:59;3.80;;;2.17;;
50519;SDS011;36468;44.098;3.078;2022-09-01T13:44:25;7.93;;;2.47;;
50519;SDS011;36468;44.098;3.078;2022-09-01T13:46:51;5.45;;;2.60;;
50519;SDS011;36468;44.098;3.078;2022-09-01T13:49:18;3.63;;;2.13;;
50519;SDS011;36468;44.098;3.078;2022-09-01T13:51:49;8.38;;;2.30;;
50519;SDS011;36468;44.098;3.078;2022-09-01T13:54:15;4.85;;;2.10;;
50519;SDS011;36468;44.098;3.078;2022-09-01T13:56:41;4.88;;;1.80;;
50519;SDS011;36468;44.098;3.078;2022-09-01T13:59:07;6.88;;;2.65;;
50519;SDS011;36468;44.098;3.078;2022-09-01T14:01:34;8.75;;;2.45;;
50519;SDS011;36468;44.098;3.078;2022-09-01T14:04:00;6.63;;;2.45;;
50519;SDS011;36468;44.098;3.078;2022-09-01T14:06:30;5.28;;;2.10;;
50519;SDS011;36468;44.098;3.078;2022-09-01T14:08:56;6.65;;;2.25;;
50519;SDS011;36468;44.098;3.078;2022-09-01T14:11:23;5.80;;;2.30;;
50519;SDS011;36468;44.098;3.078;2022-09-01T14:13:50;4.60;;;2.15;;
50519;SDS011;36468;44.098;3.078;2022-09-01T14:16:16;5.45;;;2.22;;
50519;SDS011;36468;44.098;3.078;2022-09-01T14:18:42;5.32;;;2.22;;
50519;SDS011;36468;44.098;3.078;2022-09-01T14:21:12;6.97;;;2.50;;
50519;SDS011;36468;44.098;3.078;2022-09-01T14:23:39;4.32;;;2.08;;
50519;SDS011;36468;44.098;3.078;2022-09-01T14:26:10;4.50;;;2.33;;
50519;SDS011;36468;44.098;3.078;2022-09-01T14:28:36;4.68;;;2.25;;
50519;SDS011;36468;44.098;3.078;2022-09-01T14:31:06;5.50;;;2.20;;
50519;SDS011;36468;44.098;3.078;2022-09-01T14:33:33;6.00;;;2.00;;
50519;SDS011;36468;44.098;3.078;2022-09-01T14:35:59;6.53;;;2.10;;
50519;SDS011;36468;44.098;3.078;2022-09-01T14:38:25;5.75;;;1.98;;
50519;SDS011;36468;44.098;3.078;2022-09-01T14:40:51;4.28;;;2.30;;
50519;SDS011;36468;44.098;3.078;2022-09-01T14:43:17;6.40;;;2.00;;
50519;SDS011;36468;44.098;3.078;2022-09-01T14:45:43;7.18;;;1.80;;
50519;SDS011;36468;44.098;3.078;2022-09-01T14:48:12;6.35;;;2.38;;
50519;SDS011;36468;44.098;3.078;2022-09-01T14:50:40;10.70;;;2.40;;
50519;SDS011;36468;44.098;3.078;2022-09-01T14:53:06;14.15;;;2.53;;
50519;SDS011;36468;44.098;3.078;2022-09-01T14:55:32;4.95;;;2.10;;
50519;SDS011;36468;44.098;3.078;2022-09-01T14:57:58;5.15;;;2.30;;
50519;SDS011;36468;44.098;3.078;2022-09-01T15:00:25;7.20;;;2.20;;
50519;SDS011;36468;44.098;3.078;2022-09-01T15:02:51;5.93;;;2.05;;
50519;SDS011;36468;44.098;3.078;2022-09-01T15:05:18;7.55;;;2.08;;
50519;SDS011;36468;44.098;3.078;2022-09-01T15:07:44;7.53;;;2.05;;
50519;SDS011;36468;44.098;3.078;2022-09-01T15:10:11;7.38;;;2.13;;
50519;SDS011;36468;44.098;3.078;2022-09-01T15:12:37;8.32;;;1.98;;
50519;SDS011;36468;44.098;3.078;2022-09-01T15:15:04;7.95;;;1.77;;
50519;SDS011;36468;44.098;3.078;2022-09-01T15:17:31;3.35;;;1.50;;
50519;SDS011;36468;44.098;3.078;2022-09-01T15:19:59;3.95;;;1.55;;
50519;SDS011;36468;44.098;3.078;2022-09-01T15:22:45;8.02;;;2.10;;
50519;SDS011;36468;44.098;3.078;2022-09-01T15:25:11;7.90;;;2.30;;
50519;SDS011;36468;44.098;3.078;2022-09-01T15:27:37;8.77;;;2.33;;
50519;SDS011;36468;44.098;3.078;2022-09-01T15:30:04;6.22;;;1.92;;
50519;SDS011;36468;44.098;3.078;2022-09-01T15:32:37;5.55;;;1.77;;
50519;SDS011;36468;44.098;3.078;2022-09-01T15:35:03;5.28;;;2.05;;
50519;SDS011;36468;44.098;3.078;2022-09-01T15:37:29;10.52;;;2.08;;
50519;SDS011;36468;44.098;3.078;2022-09-01T15:39:55;6.43;;;2.28;;
50519;SDS011;36468;44.098;3.078;2022-09-01T15:42:21;6.70;;;2.30;;
50519;SDS011;36468;44.098;3.078;2022-09-01T15:44:48;7.78;;;2.17;;
50519;SDS011;36468;44.098;3.078;2022-09-01T15:47:14;4.18;;;2.00;;
50519;SDS011;36468;44.098;3.078;2022-09-01T15:49:40;9.07;;;2.00;;
50519;SDS011;36468;44.098;3.078;2022-09-01T15:52:06;6.93;;;2.10;;
50519;SDS011;36468;44.098;3.078;2022-09-01T15:54:32;7.05;;;1.92;;
50519;SDS011;36468;44.098;3.078;2022-09-01T15:57:01;7.45;;;2.10;;
50519;SDS011;36468;44.098;3.078;2022-09-01T15:59:27;12.75;;;5.00;;